Latest Weather Observations for Hervey Bay

IDQ60801

Issued at 5:42 pm EST Sunday 15 September 2019 (issued every 10 minutes, with the page automatically refreshed every 10 minutes)

About weather observations | Map of weather stations | Latest weather observations for QLD | Other Formats
Station Details ID: 040405 Name: HERVEY BAY AIRPORT Lat: -25.32 Lon: 152.88 Height: 12.98 m
Data from the previous 72 hours. | See also: Recent months at Hervey Bay
Date/Time
EST
Temp
°C
App
Temp
°C
Dew
Point
°C
Rel
Hum
%
Delta-T
°C
Wind Press
QNH
hPa
Press
MSL
hPa
Rain since
9am
mm
Dir  Spd
km/h
Gust
km/h
Spd
kts
Gust
kts
15/05:30pm 21.0 18.5 12.2 57 4.9 E 17 22 9 12 1023.2 1023.1 0.0
15/05:00pm 22.0 19.1 12.3 54 5.5 ESE 19 24 10 13 1022.8 1022.7 0.0
15/04:30pm 22.7 19.1 12.0 50 6.0 E 22 30 12 16 1022.5 1022.4 0.0
15/04:00pm 23.3 20.0 12.9 52 6.0 ESE 22 28 12 15 1022.5 1022.4 0.0
15/03:30pm 23.8 20.2 11.8 47 6.8 ESE 22 30 12 16 1022.2 1022.1 0.0
15/03:00pm 24.5 21.2 11.5 44 7.3 ESE 20 28 11 15 1021.9 1021.8 0.0
15/02:30pm 24.4 21.1 11.7 45 7.2 ESE 20 26 11 14 1022.0 1021.9 0.0
15/02:00pm 24.7 21.6 11.6 44 7.4 ESE 19 24 10 13 1022.4 1022.3 0.0
15/01:30pm 24.5 21.6 11.1 43 7.5 ESE 17 24 9 13 1022.8 1022.7 0.0
15/01:00pm 24.0 20.9 11.7 46 6.9 ESE 19 24 10 13 1023.3 1023.2 0.0
15/12:30pm 24.2 21.7 12.2 47 6.8 ESE 17 24 9 13 1023.5 1023.4 0.0
15/12:00pm 24.5 22.0 13.4 50 6.4 ESE 19 30 10 16 1023.6 1023.5 0.0
15/11:30am 24.2 21.4 12.5 48 6.7 ESE 19 26 10 14 1023.8 1023.7 0.0
15/11:00am 24.2 21.7 13.4 51 6.3 ESE 19 26 10 14 1023.9 1023.8 0.0
15/10:30am 24.0 21.2 13.2 50 6.3 ESE 20 26 11 14 1024.1 1024.0 0.0
15/10:00am 23.8 21.3 13.4 52 6.0 ESE 19 28 10 15 1024.5 1024.4 0.0
15/09:30am 23.1 20.7 13.8 55 5.4 ESE 19 28 10 15 1024.5 1024.4 0.0
15/09:00am 22.4 20.7 14.8 62 4.5 ESE 17 28 9 15 1024.6 1024.5 0.0
15/08:30am 22.0 21.4 15.6 67 3.8 SSE 13 20 7 11 1024.6 1024.5 0.0
15/08:00am 17.9 17.4 14.8 82 1.8 SW 11 13 6 7 1024.5 1024.4 0.0
15/07:30am 15.4 14.5 13.6 89 1.0 SSW 11 15 6 8 1024.3 1024.2 0.0
15/07:00am 14.2 12.7 13.2 94 0.5 SSW 13 15 7 8 1023.9 1023.8 0.0
15/06:46am 13.5 12.3 12.7 95 0.4 SSW 11 15 6 8 1023.6 1023.5 0.0
15/06:30am 13.3 13.0 12.7 96 0.3 SW 6 9 3 5 1023.3 1023.2 0.0
15/06:00am 12.6 11.9 12.0 96 0.3 SW 7 11 4 6 1023.0 1022.9 0.0
15/05:30am 11.9 10.6 11.1 95 0.4 SW 9 11 5 6 1022.8 1022.7 0.0
15/05:00am 10.6 9.2 9.7 94 0.5 SW 7 9 4 5 1022.4 1022.3 0.0
15/04:30am 10.4 8.6 9.3 93 0.5 SSW 9 9 5 5 1022.0 1021.9 0.0
15/04:00am 8.9 6.9 7.2 89 0.8 SW 7 9 4 5 1021.7 1021.6 0.0
15/03:30am 9.4 7.2 7.7 89 0.8 SSW 9 9 5 5 1021.4 1021.3 0.0
15/03:00am 9.8 9.4 8.2 90 0.8 CALM 0 0 0 0 1021.4 1021.3 0.0
15/02:30am 10.3 8.9 8.7 90 0.8 S 6 9 3 5 1021.3 1021.2 0.0
15/02:00am 11.0 10.6 9.6 91 0.7 SSW 2 7 1 4 1021.5 1021.4 0.0
15/01:30am 10.3 8.7 8.6 89 0.8 SSW 7 9 4 5 1021.3 1021.2 0.0
15/01:00am 10.7 10.4 8.8 88 0.9 CALM 0 0 0 0 1021.7 1021.6 0.0
15/12:30am 12.3 12.7 11.2 93 0.6 CALM 0 4 0 2 1021.8 1021.7 0.0
15/12:00am 9.8 8.9 7.6 86 1.0 SSW 2 9 1 5 1021.6 1021.5 0.0
 
Date/Time
EST
Temp
°C
App
Temp
°C
Dew
Point
°C
Rel
Hum
%
Delta-T
°C
Wind Press
QNH
hPa
Press
MSL
hPa
Rain since
9am
mm
Dir  Spd
km/h
Gust
km/h
Spd
kts
Gust
kts
14/11:30pm 10.5 10.1 8.1 85 1.2 CALM 0 0 0 0 1021.5 1021.4 0.0
14/11:00pm 11.0 10.6 8.4 84 1.3 CALM 0 0 0 0 1021.5 1021.4 0.0
14/10:30pm 11.7 11.5 8.9 83 1.4 CALM 0 0 0 0 1021.6 1021.5 0.0
14/10:00pm 13.3 12.6 11.4 88 1.0 SW 6 6 3 3 1021.7 1021.6 0.0
14/09:30pm 13.5 13.6 10.1 80 1.8 CALM 0 0 0 0 1021.7 1021.6 0.0
14/09:00pm 14.9 14.8 10.7 76 2.2 N 2 7 1 4 1021.6 1021.5 0.0
14/08:30pm 18.9 18.7 14.6 76 2.5 N 9 11 5 6 1021.3 1021.2 0.0
14/08:00pm 19.0 18.7 14.3 74 2.7 N 9 13 5 7 1021.0 1020.9 0.0
14/07:30pm 19.4 18.6 14.0 71 3.1 N 11 15 6 8 1020.7 1020.6 0.0
14/07:00pm 19.5 18.5 14.5 73 2.9 N 13 17 7 9 1020.4 1020.3 0.0
14/06:30pm 19.4 18.7 14.2 72 3.0 N 11 15 6 8 1020.4 1020.3 0.0
14/06:00pm 20.0 19.4 13.5 66 3.7 N 9 13 5 7 1020.1 1020.0 0.0
14/05:30pm 20.9 19.9 12.3 58 4.8 N 9 15 5 8 1019.8 1019.7 0.0
14/05:00pm 22.1 19.7 9.9 46 6.6 N 13 19 7 10 1019.3 1019.2 0.0
14/04:30pm 22.8 19.5 9.6 43 7.1 N 17 22 9 12 1019.1 1019.0 0.0
14/04:00pm 23.9 19.9 6.7 33 8.9 N 17 26 9 14 1019.0 1018.9 0.0
14/03:30pm 24.9 20.4 4.1 26 10.3 N 17 20 9 11 1018.9 1018.8 0.0
14/03:00pm 25.4 20.9 4.0 25 10.6 NNE 17 20 9 11 1019.0 1018.9 0.0
14/02:30pm 25.4 21.1 5.1 27 10.3 NNE 17 20 9 11 1019.1 1019.0 0.0
14/02:00pm 25.7 21.8 5.3 27 10.4 NNE 15 19 8 10 1019.5 1019.4 0.0
14/01:30pm 25.1 21.8 8.1 34 9.1 NE 15 19 8 10 1019.8 1019.7 0.0
14/01:00pm 24.5 21.4 8.9 37 8.4 NNE 15 22 8 12 1020.1 1020.0 0.0
14/12:30pm 25.1 21.6 8.6 35 8.9 NNE 17 20 9 11 1020.6 1020.5 0.0
14/12:00pm 24.9 21.8 10.4 40 8.0 NE 17 28 9 15 1021.1 1021.0 0.0
14/11:30am 24.5 22.3 12.1 46 7.1 ENE 15 19 8 10 1021.6 1021.5 0.0
14/11:00am 23.8 22.4 12.1 48 6.6 ENE 11 19 6 10 1022.0 1021.9 0.0
14/10:30am 23.1 22.4 13.3 54 5.7 ENE 9 13 5 7 1022.4 1022.3 0.0
14/10:00am 23.0 22.6 14.0 57 5.2 ENE 9 13 5 7 1022.6 1022.5 0.0
14/09:30am 22.1 22.1 14.2 61 4.6 SE 7 11 4 6 1023.1 1023.0 0.0
14/09:00am 20.4 20.5 15.4 73 3.0 SSW 9 15 5 8 1023.3 1023.2 0.0
14/08:30am 18.3 17.2 14.4 78 2.2 SSW 13 17 7 9 1023.4 1023.3 0.0
14/08:00am 16.0 14.9 13.1 83 1.6 SSW 11 15 6 8 1023.2 1023.1 0.0
14/07:30am 14.3 13.3 12.2 87 1.1 SSW 9 13 5 7 1022.9 1022.8 0.0
14/07:00am 13.1 12.2 12.5 96 0.3 SW 9 11 5 6 1022.7 1022.6 0.0
14/06:30am 9.9 8.5 9.0 94 0.4 SW 6 9 3 5 1022.3 1022.2 0.0
14/06:27am 9.8 8.4 8.9 94 0.4 SW 6 7 3 4 1022.2 1022.1 0.0
14/06:00am 8.8 7.1 7.7 93 0.5 SW 6 7 3 4 1021.9 1021.8 0.0
14/05:30am 8.2 6.2 7.0 92 0.6 SSW 7 9 4 5 1021.6 1021.5 0.0
14/05:09am 8.1 6.0 6.7 91 0.6 SSW 7 9 4 5 1021.4 1021.3 0.0
14/05:00am 8.1 6.0 6.6 90 0.7 SSW 7 7 4 4 1021.4 1021.3 0.0
14/04:56am 8.1 6.0 6.6 90 0.7 SSW 7 7 4 4 1021.3 1021.2 0.0
14/04:42am 8.2 6.3 6.7 90 0.7 SW 6 7 3 4 1021.3 1021.2 0.0
14/04:30am 8.3 6.2 6.8 90 0.7 SSW 7 9 4 5 1021.3 1021.2 0.0
14/04:00am 9.3 8.8 7.7 90 0.8 CALM 0 0 0 0 1021.3 1021.2 0.0
14/03:30am 10.8 9.6 9.6 92 0.6 SW 6 7 3 4 1021.5 1021.4 0.0
14/03:00am 11.7 10.6 10.6 93 0.6 SSW 7 9 4 5 1021.5 1021.4 0.0
14/02:30am 12.0 10.2 10.9 93 0.6 SSW 11 13 6 7 1021.6 1021.5 0.0
14/02:00am 12.7 11.2 11.9 95 0.4 SSW 11 13 6 7 1021.8 1021.7 0.0
14/01:44am 13.0 12.0 12.4 96 0.3 SSW 9 11 5 6 1021.8 1021.7 0.0
14/01:30am 13.3 12.4 12.7 96 0.3 SW 9 11 5 6 1021.8 1021.7 0.0
14/01:29am 13.4 12.9 12.8 96 0.3 SW 7 11 4 6 1021.8 1021.7 0.0
14/01:00am 13.8 13.1 13.2 96 0.3 SW 9 9 5 5 1021.9 1021.8 0.0
14/12:34am 14.1 13.5 13.5 96 0.3 SSW 9 11 5 6 1022.2 1022.1 0.0
14/12:30am 14.0 13.4 13.4 96 0.3 SSW 9 11 5 6 1022.2 1022.1 0.0
14/12:00am 11.1 9.0 9.9 92 0.6 SSW 11 13 6 7 1022.2 1022.1 0.0
 
Date/Time
EST
Temp
°C
App
Temp
°C
Dew
Point
°C
Rel
Hum
%
Delta-T
°C
Wind Press
QNH
hPa
Press
MSL
hPa
Rain since
9am
mm
Dir  Spd
km/h
Gust
km/h
Spd
kts
Gust
kts
13/11:50pm 10.0 7.9 8.4 90 0.8 SW 9 11 5 6 1022.2 1022.1 0.0
13/11:31pm 9.7 9.2 7.8 88 0.9 CALM 0 0 0 0 1022.2 1022.1 0.0
13/11:30pm 9.7 9.2 7.8 88 0.9 CALM 0 0 0 0 1022.2 1022.1 0.0
13/11:03pm 10.4 10.1 8.5 88 0.9 CALM 0 0 0 0 1022.2 1022.1 0.0
13/11:00pm 10.3 9.9 8.4 88 0.9 CALM 0 0 0 0 1022.2 1022.1 0.0
13/10:35pm 10.6 10.4 8.9 89 0.8 CALM 0 0 0 0 1022.2 1022.1 0.0
13/10:30pm 10.5 10.2 8.6 88 0.9 CALM 0 0 0 0 1022.1 1022.0 0.0
13/10:00pm 10.9 10.7 9.0 88 0.9 CALM 0 0 0 0 1022.2 1022.1 0.0
13/09:30pm 11.1 10.1 8.8 86 1.1 SSW 4 6 2 3 1022.2 1022.1 0.0
13/09:00pm 11.7 11.2 9.4 86 1.2 WSW 2 6 1 3 1021.9 1021.8 0.0
13/08:30pm 12.2 11.4 9.8 85 1.2 SSW 4 7 2 4 1021.6 1021.5 0.0
13/08:00pm 13.0 13.2 10.5 85 1.3 CALM 0 0 0 0 1021.3 1021.2 0.0
13/07:30pm 14.2 14.8 11.9 86 1.2 CALM 0 0 0 0 1020.9 1020.8 0.0
13/07:00pm 14.7 15.1 11.1 79 1.9 CALM 0 0 0 0 1020.7 1020.6 0.0
13/06:30pm 16.2 16.8 12.0 76 2.3 CALM 0 0 0 0 1020.2 1020.1 0.0
13/06:00pm 19.0 19.3 15.1 78 2.3 N 7 9 4 5 1019.8 1019.7 0.0
13/05:30pm 20.2 20.3 15.4 74 2.8 N 9 13 5 7 1019.4 1019.3 0.0
13/05:00pm 21.3 20.9 15.2 68 3.6 N 11 17 6 9 1019.1 1019.0 0.0
13/04:30pm 21.5 19.6 15.3 68 3.7 NNE 19 24 10 13 1018.9 1018.8 0.0
13/04:00pm 22.0 20.4 14.9 64 4.2 N 17 24 9 13 1018.7 1018.6 0.0
13/03:30pm 22.2 20.3 14.1 60 4.7 N 17 22 9 12 1018.5 1018.4 0.0
13/03:00pm 22.7 20.5 14.8 61 4.7 NNE 20 24 11 13 1018.4 1018.3 0.0
13/02:30pm 22.7 20.2 14.0 58 5.1 N 20 26 11 14 1018.5 1018.4 0.0
13/02:00pm 23.4 21.0 13.8 54 5.6 N 19 24 10 13 1018.7 1018.6 0.0
13/01:30pm 23.5 21.2 14.2 56 5.5 NNE 19 24 10 13 1019.0 1018.9 0.0
13/01:00pm 23.5 21.2 14.2 56 5.5 NNE 19 26 10 14 1019.1 1019.0 0.0
13/12:30pm 23.1 20.7 13.8 55 5.4 NNE 19 26 10 14 1019.6 1019.5 0.0
13/12:00pm 23.5 21.0 13.4 53 5.8 N 19 22 10 12 1020.1 1020.0 0.0
13/11:30am 23.4 20.8 13.3 53 5.8 N 19 24 10 13 1020.5 1020.4 0.0
13/11:00am 22.9 20.2 12.8 53 5.8 N 19 24 10 13 1021.2 1021.1 0.0
13/10:30am 22.8 20.0 13.3 55 5.5 NNW 20 28 11 15 1021.6 1021.5 0.0
13/10:00am 22.9 20.5 12.8 53 5.8 NNW 17 24 9 13 1022.1 1022.0 0.0
13/09:30am 22.0 19.9 12.5 54 5.4 NW 15 22 8 12 1022.5 1022.4 0.0
13/09:00am 21.5 19.3 13.2 59 4.7 NW 17 26 9 14 1022.8 1022.7 0.0
13/08:30am 19.3 18.8 13.7 70 3.2 W 9 17 5 9 1023.0 1022.9 0.0
13/08:00am 18.2 17.4 13.9 76 2.4 SSW 11 17 6 9 1023.3 1023.2 0.0
13/07:30am 16.1 16.1 13.6 85 1.4 W 6 9 3 5 1022.7 1022.6 0.0
13/07:00am 13.4 14.1 12.3 93 0.6 CALM 0 6 0 3 1022.6 1022.5 0.0
13/06:30am 9.6 8.8 8.2 91 0.7 SSW 2 9 1 5 1022.7 1022.6 0.0
13/06:00am 7.9 7.0 6.2 89 0.8 CALM 0 0 0 0 1022.3 1022.2 0.0
13/05:30am 8.0 6.0 6.1 88 0.9 SW 6 7 3 4 1022.1 1022.0 0.0
13/05:00am 8.2 6.2 6.3 88 0.9 SW 6 7 3 4 1021.9 1021.8 0.0
13/04:30am 8.7 7.6 6.8 88 0.9 SW 2 6 1 3 1021.9 1021.8 0.0
13/04:00am 9.5 8.7 8.3 92 0.6 SW 2 7 1 4 1022.0 1021.9 0.0
13/03:30am 8.9 6.6 7.4 90 0.7 SSW 9 11 5 6 1022.2 1022.1 0.0
13/03:00am 8.7 6.9 7.2 90 0.7 SSW 6 9 3 5 1022.1 1022.0 0.0
13/02:30am 8.7 6.6 6.8 88 0.9 SSW 7 9 4 5 1022.3 1022.2 0.0
13/02:00am 9.0 7.2 7.3 89 0.8 SSW 6 7 3 4 1022.6 1022.5 0.0
13/01:30am 9.3 8.7 7.6 89 0.8 CALM 0 0 0 0 1022.9 1022.8 0.0
13/01:00am 9.1 8.5 7.2 88 0.9 CALM 0 0 0 0 1023.2 1023.1 0.0
13/12:30am 9.0 8.3 6.8 86 1.0 CALM 0 0 0 0 1023.3 1023.2 0.0
13/12:00am 9.8 8.6 7.9 88 0.9 SW 4 6 2 3 1023.6 1023.5 0.0
 
Date/Time
EST
Temp
°C
App
Temp
°C
Dew
Point
°C
Rel
Hum
%
Delta-T
°C
Wind Press
QNH
hPa
Press
MSL
hPa
Rain since
9am
mm
Dir  Spd
km/h
Gust
km/h
Spd
kts
Gust
kts
12/11:30pm 9.8 9.3 7.7 87 1.0 CALM 0 0 0 0 1023.8 1023.7 0.0
12/11:00pm 10.3 9.9 8.2 87 1.0 CALM 0 0 0 0 1023.9 1023.8 0.0
12/10:30pm 10.4 10.0 8.2 86 1.1 CALM 0 0 0 0 1024.2 1024.1 0.0
12/10:00pm 10.8 10.4 8.2 84 1.3 CALM 0 0 0 0 1024.2 1024.1 0.0
12/09:30pm 11.4 11.1 8.8 84 1.3 CALM 0 0 0 0 1024.4 1024.3 0.0
12/09:00pm 12.0 11.8 9.2 83 1.4 CALM 0 0 0 0 1024.5 1024.4 0.0
12/08:30pm 12.7 12.7 9.7 82 1.5 CALM 0 0 0 0 1024.6 1024.5 0.0
12/08:00pm 13.8 13.5 10.0 78 2.0 NNW 2 6 1 3 1024.6 1024.5 0.0
12/07:30pm 16.7 15.8 11.4 71 2.9 E 7 11 4 6 1024.3 1024.2 0.0
12/07:00pm 17.8 16.7 12.0 69 3.2 E 9 13 5 7 1024.1 1024.0 0.0
12/06:30pm 18.3 16.5 12.1 67 3.4 E 13 17 7 9 1023.8 1023.7 0.0
12/06:00pm 18.9 16.6 11.9 64 3.9 E 15 20 8 11 1023.6 1023.5 0.0

Other formats

Comma delimited format used in spreadsheet applications
http://www.bom.gov.au/fwo/IDQ60801/IDQ60801.95565.axf

JavaScript Object Notation format (JSON) in row-major order
http://www.bom.gov.au/fwo/IDQ60801/IDQ60801.95565.json

Data quality

Most of these data are generated automatically and are frequently updated. Quality checks on data are not normally performed. It is possible for incorrect values to appear. Refer to information at About Latest Weather Observations and please check the disclaimer before using these data.